createdAt,value
2022-09-14T00:00:30.846Z,11.93
2022-09-14T00:03:00.433Z,11.88
2022-09-14T00:05:29.938Z,11.74
2022-09-14T00:08:01.911Z,11.67
2022-09-14T00:10:31.319Z,11.62
2022-09-14T00:13:00.791Z,11.60
2022-09-14T00:15:30.178Z,11.56
2022-09-14T00:17:59.557Z,11.54
2022-09-14T00:20:29.048Z,11.50
2022-09-14T00:22:58.445Z,11.54
2022-09-14T00:25:30.486Z,11.48
2022-09-14T00:28:00.771Z,11.46
2022-09-14T00:30:30.486Z,11.44
2022-09-14T00:32:59.849Z,11.39
2022-09-14T00:35:29.232Z,11.44
2022-09-14T00:37:58.586Z,11.41
2022-09-14T00:40:30.626Z,11.39
2022-09-14T00:43:00.029Z,11.35
2022-09-14T00:45:30.623Z,11.36
2022-09-14T00:48:00.103Z,11.30
2022-09-14T00:50:29.494Z,11.31
2022-09-14T00:52:59.532Z,11.31
2022-09-14T00:55:31.536Z,11.25
2022-09-14T00:58:00.945Z,11.17
2022-09-14T01:00:32.489Z,11.20
2022-09-14T01:03:02.398Z,11.12
2022-09-14T01:05:40.294Z,11.05
2022-09-14T01:08:25.169Z,10.97
2022-09-14T01:11:08.794Z,10.98
2022-09-14T01:13:43.903Z,11.00
2022-09-14T01:16:19.919Z,10.95
2022-09-14T01:18:51.182Z,10.94
2022-09-14T01:21:23.398Z,10.87
2022-09-14T01:23:59.494Z,10.86
2022-09-14T01:26:44.538Z,10.88
2022-09-14T01:29:19.680Z,10.88
2022-09-14T01:31:53.077Z,10.94
2022-09-14T01:34:28.932Z,10.90
2022-09-14T01:37:02.025Z,10.85
2022-09-14T01:39:33.028Z,10.82
2022-09-14T01:42:02.681Z,10.76
2022-09-14T01:44:37.733Z,10.71
2022-09-14T01:47:13.571Z,10.77
2022-09-14T01:49:47.397Z,10.78
2022-09-14T01:52:20.758Z,10.79
2022-09-14T01:54:52.842Z,10.76
2022-09-14T01:57:26.580Z,10.80
2022-09-14T02:00:02.270Z,10.79
2022-09-14T02:02:33.825Z,10.80
2022-09-14T02:05:06.863Z,10.85
2022-09-14T02:07:36.906Z,10.80
2022-09-14T02:10:09.206Z,10.74
2022-09-14T02:12:39.056Z,10.70
2022-09-14T02:15:13.267Z,10.71
2022-09-14T02:17:43.006Z,10.69
2022-09-14T02:20:17.448Z,10.65
2022-09-14T02:22:47.274Z,10.62
2022-09-14T02:25:16.817Z,10.62
2022-09-14T02:27:47.471Z,10.63
2022-09-14T02:30:20.777Z,10.61
2022-09-14T02:32:58.504Z,10.58
2022-09-14T02:35:32.077Z,10.58
2022-09-14T02:38:04.998Z,10.55
2022-09-14T02:40:37.454Z,10.60
2022-09-14T02:43:15.383Z,10.62
2022-09-14T02:45:54.845Z,10.62
2022-09-14T02:48:30.886Z,10.63
2022-09-14T02:51:04.022Z,10.59
2022-09-14T02:53:37.272Z,10.58
2022-09-14T02:56:09.535Z,10.56
2022-09-14T02:58:40.143Z,10.58
2022-09-14T03:01:14.405Z,10.57
2022-09-14T03:03:44.050Z,10.56
2022-09-14T03:06:13.641Z,10.54
2022-09-14T03:08:44.454Z,10.54
2022-09-14T03:11:13.916Z,10.51
2022-09-14T03:13:44.509Z,10.50
2022-09-14T03:16:19.193Z,10.48
2022-09-14T03:18:48.841Z,10.47
2022-09-14T03:21:20.135Z,10.48
2022-09-14T03:23:51.244Z,10.48
2022-09-14T03:26:22.069Z,10.47
2022-09-14T03:28:53.659Z,10.45
2022-09-14T03:31:26.360Z,10.45
2022-09-14T03:33:56.881Z,10.44
2022-09-14T03:36:27.450Z,10.38
2022-09-14T03:38:59.921Z,10.37
2022-09-14T03:41:29.547Z,10.53
2022-09-14T03:43:59.022Z,10.46
2022-09-14T03:46:31.048Z,10.43
2022-09-14T03:49:00.442Z,10.38
2022-09-14T03:51:29.921Z,10.38
2022-09-14T03:53:59.287Z,10.36
2022-09-14T03:56:28.666Z,10.37
2022-09-14T03:58:58.041Z,10.31
2022-09-14T04:01:27.487Z,10.27
2022-09-14T04:03:59.512Z,10.28
2022-09-14T04:06:28.918Z,10.27
2022-09-14T04:09:00.038Z,10.28
2022-09-14T04:11:31.494Z,10.33
2022-09-14T04:14:03.886Z,10.34
2022-09-14T04:16:34.068Z,10.39
2022-09-14T04:19:06.189Z,10.42
2022-09-14T04:21:36.069Z,10.42
2022-09-14T04:24:21.752Z,10.40
2022-09-14T04:26:52.545Z,10.43
2022-09-14T04:29:21.978Z,10.48
2022-09-14T04:31:51.373Z,10.49
2022-09-14T04:34:23.346Z,10.58
2022-09-14T04:36:52.935Z,10.56
2022-09-14T04:39:22.423Z,10.57
2022-09-14T04:41:51.890Z,10.58
2022-09-14T04:44:21.395Z,10.62
2022-09-14T04:46:50.833Z,10.67
2022-09-14T04:49:23.174Z,10.69
2022-09-14T04:51:53.285Z,10.72
2022-09-14T04:54:22.653Z,10.74
2022-09-14T04:56:52.053Z,10.77
2022-09-14T04:59:21.422Z,10.77
2022-09-14T05:01:51.181Z,10.79
2022-09-14T05:04:23.186Z,10.82
2022-09-14T05:06:52.868Z,10.87
2022-09-14T05:09:22.329Z,10.87
2022-09-14T05:11:52.930Z,10.90
2022-09-14T05:14:22.358Z,10.94
2022-09-14T05:16:51.894Z,10.97
2022-09-14T05:19:23.856Z,11.00
2022-09-14T05:21:53.243Z,11.01
2022-09-14T05:24:22.621Z,11.08
2022-09-14T05:26:59.468Z,11.13
2022-09-14T05:29:30.113Z,11.17
2022-09-14T05:31:59.493Z,11.25
2022-09-14T05:34:31.475Z,11.26
2022-09-14T05:37:00.849Z,11.30
2022-09-14T05:39:30.222Z,11.30
2022-09-14T05:41:59.673Z,11.30
2022-09-14T05:44:29.061Z,11.31
2022-09-14T05:46:58.430Z,11.31
2022-09-14T05:49:27.821Z,11.38
2022-09-14T05:51:59.807Z,11.40
2022-09-14T05:54:29.217Z,11.47
2022-09-14T05:56:58.640Z,11.49
2022-09-14T05:59:31.600Z,11.53
2022-09-14T06:02:01.452Z,11.56
2022-09-14T06:04:31.185Z,11.60
2022-09-14T06:07:17.995Z,11.65
2022-09-14T06:09:48.306Z,11.70
2022-09-14T06:12:17.901Z,11.78
2022-09-14T06:14:47.254Z,11.83
2022-09-14T06:17:16.658Z,11.91
2022-09-14T06:19:46.023Z,12.00
2022-09-14T06:22:18.007Z,12.07
2022-09-14T06:24:47.381Z,12.16
2022-09-14T06:27:16.804Z,12.19
2022-09-14T06:29:51.914Z,12.22
2022-09-14T06:32:23.220Z,12.33
2022-09-14T06:34:52.644Z,12.34
2022-09-14T06:37:24.605Z,12.36
2022-09-14T06:39:54.032Z,12.39
2022-09-14T06:42:23.406Z,12.45
2022-09-14T06:44:53.281Z,12.47
2022-09-14T06:47:23.877Z,12.48
2022-09-14T06:49:53.268Z,12.55
2022-09-14T06:52:25.239Z,12.62
2022-09-14T06:54:54.631Z,12.61
2022-09-14T06:57:23.994Z,12.67
2022-09-14T06:59:53.380Z,12.72
2022-09-14T07:02:23.046Z,12.81
2022-09-14T07:04:52.577Z,12.86
2022-09-14T07:07:22.178Z,12.89
2022-09-14T07:09:54.159Z,12.92
2022-09-14T07:12:23.526Z,13.03
2022-09-14T07:14:52.883Z,13.17
2022-09-14T07:17:22.297Z,13.26
2022-09-14T07:19:51.661Z,13.34
2022-09-14T07:22:21.032Z,13.58
2022-09-14T07:24:50.482Z,13.62
2022-09-14T07:27:22.469Z,13.73
2022-09-14T07:29:51.830Z,13.66
2022-09-14T07:32:21.204Z,13.75
2022-09-14T07:34:50.585Z,13.86
2022-09-14T07:37:19.961Z,13.98
2022-09-14T07:39:49.434Z,14.08
2022-09-14T07:42:18.884Z,14.17
2022-09-14T07:44:50.846Z,14.27
2022-09-14T07:47:20.233Z,14.35
2022-09-14T07:49:49.613Z,14.47
2022-09-14T07:52:19.038Z,14.49
2022-09-14T07:54:48.405Z,14.56
2022-09-14T07:57:17.902Z,14.70
2022-09-14T07:59:49.858Z,14.90
2022-09-14T08:02:19.374Z,15.04
2022-09-14T08:04:48.770Z,14.88
2022-09-14T08:07:18.123Z,14.99
2022-09-14T08:09:48.528Z,15.10
2022-09-14T08:12:18.396Z,15.07
2022-09-14T08:14:51.244Z,15.20
2022-09-14T08:17:22.082Z,15.33
2022-09-14T08:19:51.581Z,15.36
2022-09-14T08:22:21.003Z,15.34
2022-09-14T08:24:50.414Z,15.35
2022-09-14T08:27:19.789Z,15.36
2022-09-14T08:29:51.751Z,15.42
2022-09-14T08:32:21.130Z,15.42
2022-09-14T08:34:52.622Z,15.50
2022-09-14T08:37:22.017Z,15.49
2022-09-14T08:39:51.830Z,15.47
2022-09-14T08:42:25.054Z,15.69
2022-09-14T08:45:00.463Z,15.83
2022-09-14T08:47:32.316Z,15.90
2022-09-14T08:50:06.102Z,15.99
2022-09-14T08:52:37.369Z,15.93
2022-09-14T08:55:20.338Z,15.84
2022-09-14T08:57:51.858Z,15.83
2022-09-14T09:00:25.353Z,15.72
2022-09-14T09:03:20.560Z,15.73
2022-09-14T09:05:54.859Z,15.97
2022-09-14T09:08:30.149Z,16.21
2022-09-14T09:11:02.044Z,16.18
2022-09-14T09:13:34.395Z,16.02
2022-09-14T09:16:09.369Z,16.34
2022-09-14T09:18:42.337Z,16.31
2022-09-14T09:21:16.545Z,16.18
2022-09-14T09:23:46.446Z,16.18
2022-09-14T09:26:20.012Z,16.23
2022-09-14T09:28:51.494Z,16.27
2022-09-14T09:31:33.904Z,16.28
2022-09-14T09:34:04.098Z,16.17
2022-09-14T09:36:37.298Z,16.16
2022-09-14T09:39:07.369Z,15.96
2022-09-14T09:41:46.713Z,16.12
2022-09-14T09:44:16.157Z,16.09
2022-09-14T09:46:53.038Z,16.08
2022-09-14T09:49:24.597Z,16.10
2022-09-14T09:51:54.388Z,16.22
2022-09-14T09:54:30.655Z,16.31
2022-09-14T09:57:01.229Z,16.39
2022-09-14T09:59:35.361Z,16.46
2022-09-14T10:02:26.738Z,16.56
2022-09-14T10:05:01.548Z,16.62
2022-09-14T10:07:32.113Z,16.45
2022-09-14T10:10:03.607Z,16.15
2022-09-14T10:12:33.593Z,16.11
2022-09-14T10:15:17.934Z,16.15
2022-09-14T10:18:07.582Z,16.15
2022-09-14T10:20:37.454Z,16.14
2022-09-14T10:23:25.751Z,16.10
2022-09-14T10:25:56.290Z,15.97
2022-09-14T10:28:28.510Z,16.03
2022-09-14T10:31:02.115Z,16.10
2022-09-14T10:33:34.166Z,15.83
2022-09-14T10:36:11.379Z,15.68
2022-09-14T10:38:42.874Z,15.72
2022-09-14T10:41:26.291Z,15.69
2022-09-14T10:44:25.951Z,15.69
2022-09-14T10:47:10.131Z,15.72
2022-09-14T10:49:52.716Z,15.76
2022-09-14T10:52:26.985Z,15.95
2022-09-14T10:55:32.186Z,16.03
2022-09-14T10:58:11.755Z,16.23
2022-09-14T11:00:54.213Z,16.52
2022-09-14T11:03:33.871Z,16.67
2022-09-14T11:06:13.323Z,16.98
2022-09-14T11:08:47.494Z,17.14
2022-09-14T11:11:29.245Z,17.58
2022-09-14T11:14:08.666Z,17.72
2022-09-14T11:16:55.834Z,17.64
2022-09-14T11:19:36.445Z,17.63
2022-09-14T11:22:13.300Z,17.65
2022-09-14T11:24:45.706Z,17.55
2022-09-14T11:27:19.257Z,17.71
2022-09-14T11:29:51.453Z,17.65
2022-09-14T11:32:24.934Z,17.72
2022-09-14T11:34:58.166Z,17.90
2022-09-14T11:37:37.082Z,17.99
2022-09-14T11:40:11.418Z,17.84
2022-09-14T11:42:46.619Z,17.90
2022-09-14T11:45:23.869Z,17.91
2022-09-14T11:48:00.341Z,17.95
2022-09-14T11:50:31.814Z,17.54
2022-09-14T11:53:12.652Z,17.39
2022-09-14T11:55:46.894Z,17.28
2022-09-14T11:58:21.793Z,17.10
2022-09-14T12:01:23.744Z,17.02
2022-09-14T12:04:07.822Z,16.80
2022-09-14T12:06:56.891Z,16.73
2022-09-14T12:10:03.682Z,16.71
2022-09-14T12:12:43.555Z,16.65
2022-09-14T12:15:36.288Z,16.70
2022-09-14T12:18:27.150Z,16.76
2022-09-14T12:21:04.753Z,16.76
2022-09-14T12:23:51.811Z,16.64
2022-09-14T12:26:41.798Z,16.54
2022-09-14T12:29:30.427Z,16.34
2022-09-14T12:32:06.005Z,16.25
2022-09-14T12:34:35.912Z,16.17
2022-09-14T12:37:30.619Z,16.17
2022-09-14T12:40:36.572Z,16.15
2022-09-14T12:43:36.108Z,16.12
2022-09-14T12:46:10.822Z,16.20
2022-09-14T12:49:17.391Z,16.27
2022-09-14T12:51:51.318Z,16.26
2022-09-14T12:54:27.159Z,16.25
2022-09-14T12:57:12.057Z,16.31
2022-09-14T12:59:47.272Z,16.50
2022-09-14T13:02:43.683Z,16.97
2022-09-14T13:05:16.274Z,17.40
2022-09-14T13:07:47.097Z,17.44
2022-09-14T13:10:22.413Z,17.31
2022-09-14T13:12:52.014Z,17.35
2022-09-14T13:15:24.813Z,17.34
2022-09-14T13:18:05.375Z,17.32
2022-09-14T13:20:36.729Z,17.13
2022-09-14T13:23:06.490Z,17.00
2022-09-14T13:25:37.582Z,17.16
2022-09-14T13:28:08.845Z,17.21
2022-09-14T13:30:38.672Z,17.32
2022-09-14T13:33:18.673Z,17.40
2022-09-14T13:35:50.647Z,17.32
2022-09-14T13:38:21.789Z,17.18
2022-09-14T13:40:52.278Z,17.04
2022-09-14T13:43:23.070Z,16.94
2022-09-14T13:45:53.673Z,16.88
2022-09-14T13:48:25.979Z,17.02
2022-09-14T13:50:57.530Z,17.00
2022-09-14T13:53:40.880Z,16.97
2022-09-14T13:56:26.556Z,17.67
2022-09-14T13:59:21.524Z,17.83
2022-09-14T14:01:57.381Z,17.59
2022-09-14T14:04:36.386Z,17.49
2022-09-14T14:07:08.662Z,17.56
2022-09-14T14:09:44.243Z,17.56
2022-09-14T14:12:15.254Z,17.34
2022-09-14T14:14:44.678Z,17.21
2022-09-14T14:17:26.108Z,17.30
2022-09-14T14:19:59.944Z,17.39
2022-09-14T14:22:31.418Z,17.49
2022-09-14T14:25:16.518Z,17.68
2022-09-14T14:27:47.133Z,17.80
2022-09-14T14:30:18.293Z,17.83
2022-09-14T14:32:52.302Z,17.75
2022-09-14T14:35:27.382Z,17.85
2022-09-14T14:37:57.370Z,18.00
2022-09-14T14:40:28.251Z,18.10
2022-09-14T14:42:58.149Z,18.10
2022-09-14T14:45:35.387Z,18.18
2022-09-14T14:48:05.918Z,18.02
2022-09-14T14:50:37.935Z,18.12
2022-09-14T14:53:08.256Z,18.12
2022-09-14T14:55:40.976Z,18.08
2022-09-14T14:58:11.372Z,18.05
2022-09-14T15:00:41.198Z,17.85
2022-09-14T15:03:10.954Z,17.78
2022-09-14T15:05:46.302Z,17.84
2022-09-14T15:08:17.375Z,17.80
2022-09-14T15:10:46.889Z,17.71
2022-09-14T15:13:16.573Z,17.59
2022-09-14T15:15:46.180Z,17.65
2022-09-14T15:18:15.568Z,17.59
2022-09-14T15:20:47.533Z,17.28
2022-09-14T15:23:17.258Z,17.34
2022-09-14T15:25:46.681Z,17.26
2022-09-14T15:28:16.190Z,17.22
2022-09-14T15:30:45.785Z,17.02
2022-09-14T15:33:15.202Z,17.01
2022-09-14T15:35:47.196Z,17.06
2022-09-14T15:38:16.551Z,16.93
2022-09-14T15:40:45.901Z,17.03
2022-09-14T15:43:15.270Z,17.25
2022-09-14T15:45:45.013Z,17.06
2022-09-14T15:48:16.185Z,16.90
2022-09-14T15:50:50.512Z,16.93
2022-09-14T15:53:20.126Z,16.95
2022-09-14T15:55:49.786Z,17.10
2022-09-14T15:58:19.219Z,16.87
2022-09-14T16:00:48.641Z,16.90
2022-09-14T16:03:18.219Z,16.84
2022-09-14T16:05:50.183Z,16.78
2022-09-14T16:08:20.768Z,16.76
2022-09-14T16:10:50.161Z,16.63
2022-09-14T16:13:19.565Z,16.56
2022-09-14T16:15:48.937Z,16.67
2022-09-14T16:18:18.306Z,16.67
2022-09-14T16:20:50.273Z,16.60
2022-09-14T16:23:19.667Z,16.58
2022-09-14T16:25:50.000Z,16.32
2022-09-14T16:28:19.377Z,16.41
2022-09-14T16:30:48.786Z,16.31
2022-09-14T16:33:19.312Z,16.19
2022-09-14T16:35:51.272Z,16.11
2022-09-14T16:38:20.683Z,16.15
2022-09-14T16:40:50.106Z,16.13
2022-09-14T16:43:19.518Z,16.15
2022-09-14T16:45:48.938Z,16.02
2022-09-14T16:48:18.377Z,15.95
2022-09-14T16:50:47.746Z,15.98
2022-09-14T16:53:19.717Z,15.82
2022-09-14T16:55:49.230Z,15.76
2022-09-14T16:58:18.621Z,15.75
2022-09-14T17:00:48.174Z,15.66
2022-09-14T17:03:17.581Z,15.59
2022-09-14T17:05:46.946Z,15.48
2022-09-14T17:08:18.929Z,15.46
2022-09-14T17:10:49.573Z,15.34
2022-09-14T17:13:18.969Z,15.28
2022-09-14T17:15:48.318Z,15.20
2022-09-14T17:18:17.713Z,15.21
2022-09-14T17:20:55.450Z,15.15
2022-09-14T17:23:27.585Z,15.06
2022-09-14T17:25:57.644Z,15.04
2022-09-14T17:28:29.702Z,15.06
2022-09-14T17:31:00.625Z,15.05
2022-09-14T17:33:30.661Z,14.98
2022-09-14T17:36:01.126Z,14.96
2022-09-14T17:38:40.017Z,14.97
2022-09-14T17:41:10.970Z,14.90
2022-09-14T17:43:41.283Z,14.80
2022-09-14T17:46:14.779Z,14.75
2022-09-14T17:48:45.036Z,14.72
2022-09-14T17:51:18.125Z,14.74
2022-09-14T17:53:56.695Z,14.70
2022-09-14T17:56:27.569Z,14.67
2022-09-14T17:59:05.062Z,14.64
2022-09-14T18:01:35.217Z,14.57
2022-09-14T18:04:06.646Z,14.54
2022-09-14T18:06:38.475Z,14.50
2022-09-14T18:09:13.310Z,14.50
2022-09-14T18:11:43.002Z,14.46
2022-09-14T18:14:13.257Z,14.45
2022-09-14T18:16:43.504Z,14.47
2022-09-14T18:19:13.271Z,14.47
2022-09-14T18:21:42.787Z,14.43
2022-09-14T18:24:15.658Z,14.34
2022-09-14T18:26:46.376Z,14.34
2022-09-14T18:29:17.709Z,14.33
2022-09-14T18:31:47.240Z,14.32
2022-09-14T18:34:16.776Z,14.34
2022-09-14T18:36:46.174Z,14.34
2022-09-14T18:39:18.387Z,14.32
2022-09-14T18:41:48.089Z,14.32
2022-09-14T18:44:17.487Z,14.34
2022-09-14T18:46:47.189Z,14.26
2022-09-14T18:49:16.650Z,14.20
2022-09-14T18:51:46.247Z,14.13
2022-09-14T18:54:18.414Z,14.07
2022-09-14T18:56:48.087Z,14.04
2022-09-14T18:59:18.130Z,14.01
2022-09-14T19:01:47.530Z,14.01
2022-09-14T19:04:17.392Z,13.95
2022-09-14T19:06:46.793Z,13.96
2022-09-14T19:09:18.766Z,13.97
2022-09-14T19:11:48.205Z,13.87
2022-09-14T19:14:20.539Z,13.79
2022-09-14T19:16:50.392Z,13.74
2022-09-14T19:19:19.847Z,13.75
2022-09-14T19:21:49.224Z,13.73
2022-09-14T19:24:21.468Z,13.61
2022-09-14T19:26:52.805Z,13.56
2022-09-14T19:29:24.489Z,13.46
2022-09-14T19:31:55.108Z,13.44
2022-09-14T19:34:26.602Z,13.32
2022-09-14T19:36:56.425Z,13.18
2022-09-14T19:39:28.814Z,13.16
2022-09-14T19:41:58.329Z,13.15
2022-09-14T19:44:27.762Z,13.10
2022-09-14T19:46:57.161Z,13.02
2022-09-14T19:49:28.114Z,12.91
2022-09-14T19:51:57.531Z,12.83
2022-09-14T19:54:29.581Z,12.79
2022-09-14T19:56:59.023Z,12.72
2022-09-14T19:59:28.712Z,12.65
2022-09-14T20:01:58.233Z,12.60
2022-09-14T20:04:27.687Z,12.59
2022-09-14T20:06:57.586Z,12.56
2022-09-14T20:09:29.622Z,12.48
2022-09-14T20:11:59.009Z,12.42
2022-09-14T20:14:29.024Z,12.39
2022-09-14T20:17:00.943Z,12.38
2022-09-14T20:19:32.583Z,12.38
2022-09-14T20:22:02.002Z,12.33
2022-09-14T20:24:35.810Z,12.32
2022-09-14T20:27:05.281Z,12.32
2022-09-14T20:29:35.834Z,12.31
2022-09-14T20:32:06.475Z,12.28
2022-09-14T20:34:36.666Z,12.20
2022-09-14T20:37:06.096Z,12.11
2022-09-14T20:39:38.418Z,12.07
2022-09-14T20:42:08.438Z,12.04
2022-09-14T20:44:37.821Z,11.99
2022-09-14T20:47:07.361Z,11.93
2022-09-14T20:49:36.739Z,11.88
2022-09-14T20:52:06.574Z,11.86
2022-09-14T20:54:38.554Z,11.83
2022-09-14T20:57:07.905Z,11.83
2022-09-14T20:59:37.490Z,11.79
2022-09-14T21:02:06.963Z,11.72
2022-09-14T21:04:37.290Z,11.69
2022-09-14T21:07:06.710Z,11.68
2022-09-14T21:09:39.187Z,11.62
2022-09-14T21:12:11.702Z,11.60
2022-09-14T21:14:41.130Z,11.65
2022-09-14T21:17:10.530Z,11.63
2022-09-14T21:19:40.578Z,11.63
2022-09-14T21:22:09.988Z,11.57
2022-09-14T21:24:41.966Z,11.58
2022-09-14T21:27:11.336Z,11.57
2022-09-14T21:29:40.692Z,11.60
2022-09-14T21:32:10.073Z,11.57
2022-09-14T21:34:39.443Z,11.56
2022-09-14T21:37:09.002Z,11.61
2022-09-14T21:39:38.471Z,11.61
2022-09-14T21:42:10.622Z,11.59
2022-09-14T21:44:40.445Z,11.61
2022-09-14T21:47:09.832Z,11.62
2022-09-14T21:49:39.271Z,11.63
2022-09-14T21:52:08.636Z,11.60
2022-09-14T21:54:38.024Z,11.56
2022-09-14T21:57:10.116Z,11.54
2022-09-14T21:59:40.290Z,11.58
2022-09-14T22:02:09.726Z,11.57
2022-09-14T22:04:39.168Z,11.57
2022-09-14T22:07:08.528Z,11.57
2022-09-14T22:09:37.956Z,11.54
2022-09-14T22:12:10.796Z,11.56
2022-09-14T22:14:40.222Z,11.54
2022-09-14T22:17:09.601Z,11.54
2022-09-14T22:19:40.054Z,11.54
2022-09-14T22:22:09.420Z,11.51
2022-09-14T22:24:39.370Z,11.48
2022-09-14T22:27:12.814Z,11.49
2022-09-14T22:29:43.794Z,11.50
2022-09-14T22:32:14.505Z,11.51
2022-09-14T22:34:49.331Z,11.53
2022-09-14T22:37:19.195Z,11.52
2022-09-14T22:39:48.848Z,11.53
2022-09-14T22:42:21.424Z,11.56
2022-09-14T22:44:50.809Z,11.64
2022-09-14T22:47:20.171Z,11.60
2022-09-14T22:49:49.991Z,11.59
2022-09-14T22:52:19.390Z,11.60
2022-09-14T22:54:48.780Z,11.77
2022-09-14T22:57:22.489Z,11.78
2022-09-14T22:59:51.895Z,11.79
2022-09-14T23:02:21.318Z,11.83
2022-09-14T23:04:51.396Z,11.84
2022-09-14T23:07:20.777Z,11.91
2022-09-14T23:09:50.189Z,11.95
2022-09-14T23:12:22.181Z,11.98
2022-09-14T23:14:51.532Z,12.12
2022-09-14T23:17:22.397Z,12.15
2022-09-14T23:19:52.036Z,12.21
2022-09-14T23:22:21.964Z,12.28
2022-09-14T23:24:51.362Z,12.33
2022-09-14T23:27:23.321Z,12.37
2022-09-14T23:29:52.730Z,12.42
2022-09-14T23:32:22.538Z,12.46
2022-09-14T23:34:51.922Z,12.50
2022-09-14T23:37:24.138Z,12.53
2022-09-14T23:39:53.528Z,12.61
2022-09-14T23:42:25.544Z,12.63
2022-09-14T23:44:54.929Z,12.65
2022-09-14T23:47:24.310Z,12.65
2022-09-14T23:49:53.714Z,12.66
2022-09-14T23:52:23.152Z,12.75
2022-09-14T23:54:52.529Z,12.72
2022-09-14T23:57:21.929Z,12.75
2022-09-14T23:59:53.905Z,12.73
